Time;durP1;ratioP1;P1;durP2;ratioP2;P2;SDS_P1;SDS_P2;PMS_P1;PMS_P2;Temp;Humidity;BMP_temperature;BMP_pressure;BME280_temperature;BME280_humidity;BME280_pressure;Samples;Min_cycle;Max_cycle;Signal;HPM_P1;HPM_P2
2023/10/15 00:01:08;;;;;;;10.20;2.60;;;;;;;;;;4995882;28;20656;-66
2023/10/15 00:03:33;;;;;;;12.25;1.77;;;;;;;;;;4995905;28;20109;-65
2023/10/15 00:05:59;;;;;;;7.73;1.87;;;;;;;;;;4995464;28;20042;-66
2023/10/15 00:08:24;;;;;;;5.32;1.67;;;;;;;;;;4995508;28;20037;-66
2023/10/15 00:10:50;;;;;;;8.82;2.22;;;;;;;;;;4995696;28;20039;-66
2023/10/15 00:13:15;;;;;;;4.23;1.73;;;;;;;;;;4995817;28;20085;-66
2023/10/15 00:15:40;;;;;;;7.97;1.83;;;;;;;;;;4995729;28;20252;-66
2023/10/15 00:18:10;;;;;;;9.57;1.75;;;;;;;;;;4995472;28;20624;-66
2023/10/15 00:20:36;;;;;;;7.50;1.85;;;;;;;;;;4994792;28;20053;-66
2023/10/15 00:23:04;;;;;;;6.80;1.63;;;;;;;;;;4995719;28;20466;-66
2023/10/15 00:25:37;;;;;;;7.00;1.67;;;;;;;;;;4995312;28;20026;-65
2023/10/15 00:28:09;;;;;;;7.65;1.98;;;;;;;;;;4995367;28;20050;-66
2023/10/15 00:30:34;;;;;;;7.70;1.63;;;;;;;;;;4995230;28;20033;-66
2023/10/15 00:33:03;;;;;;;3.67;1.30;;;;;;;;;;4995335;28;20026;-66
2023/10/15 00:35:33;;;;;;;8.10;1.80;;;;;;;;;;4995128;28;20019;-66
2023/10/15 00:37:58;;;;;;;6.65;1.52;;;;;;;;;;4995311;28;20077;-66
2023/10/15 00:40:24;;;;;;;8.20;1.63;;;;;;;;;;4995007;28;20018;-66
2023/10/15 00:42:49;;;;;;;13.70;2.15;;;;;;;;;;4995192;28;20463;-66
2023/10/15 00:45:15;;;;;;;7.27;1.60;;;;;;;;;;4995147;28;20029;-66
2023/10/15 00:47:44;;;;;;;7.60;1.45;;;;;;;;;;4994991;28;20315;-66
2023/10/15 00:50:10;;;;;;;7.97;1.65;;;;;;;;;;4994966;28;20025;-66
2023/10/15 00:52:38;;;;;;;7.93;1.75;;;;;;;;;;4995147;28;20026;-66
2023/10/15 00:55:05;;;;;;;8.93;2.15;;;;;;;;;;4994269;28;20026;-66
2023/10/15 00:57:41;;;;;;;10.23;1.58;;;;;;;;;;4993490;28;20058;-66
2023/10/15 01:00:36;;;;;;;8.35;1.70;;;;;;;;;;4995222;28;20046;-66
2023/10/15 01:02:52;;;;;;;12.13;2.03;;;;;;;;;;4994347;28;20026;-66
2023/10/15 01:05:18;;;;;;;6.63;1.97;;;;;;;;;;4994679;28;20029;-66
2023/10/15 01:07:47;;;;;;;7.70;1.87;;;;;;;;;;4994380;28;20372;-66
2023/10/15 01:10:32;;;;;;;9.35;1.70;;;;;;;;;;4994544;28;20090;-66
2023/10/15 01:13:05;;;;;;;7.40;1.88;;;;;;;;;;4994500;28;20069;-66
2023/10/15 01:15:34;;;;;;;9.52;1.92;;;;;;;;;;4994738;28;20027;-66
2023/10/15 01:18:06;;;;;;;9.55;1.85;;;;;;;;;;4994572;28;20085;-66
2023/10/15 01:20:35;;;;;;;4.72;1.52;;;;;;;;;;4994441;28;20463;-66
2023/10/15 01:23:01;;;;;;;7.72;1.58;;;;;;;;;;4994612;28;20019;-66
2023/10/15 01:25:26;;;;;;;3.22;1.30;;;;;;;;;;4994601;28;20053;-66
2023/10/15 01:27:58;;;;;;;7.78;1.45;;;;;;;;;;4994092;28;20058;-66
2023/10/15 01:30:24;;;;;;;4.47;1.65;;;;;;;;;;4994050;28;20035;-66
2023/10/15 01:32:50;;;;;;;4.85;1.55;;;;;;;;;;4994256;28;20089;-66
2023/10/15 01:35:15;;;;;;;6.15;1.52;;;;;;;;;;4994373;28;20386;-66
2023/10/15 01:37:45;;;;;;;9.23;1.63;;;;;;;;;;4994001;28;20023;-66
2023/10/15 01:42:48;;;;;;;6.72;1.73;;;;;;;;;;4993885;28;20050;-66
2023/10/15 01:47:54;;;;;;;13.00;3.43;;;;;;;;;;4994174;28;20065;-66
2023/10/15 01:50:32;;;;;;;6.75;1.40;;;;;;;;;;4986668;28;20034;-66
2023/10/15 01:53:04;;;;;;;7.70;1.95;;;;;;;;;;4993946;28;20026;-69
2023/10/15 01:55:29;;;;;;;7.00;1.55;;;;;;;;;;4993612;28;20406;-69
2023/10/15 01:58:00;;;;;;;11.68;1.60;;;;;;;;;;4993716;28;20056;-69
2023/10/15 02:00:44;;;;;;;7.10;1.75;;;;;;;;;;4993807;28;20026;-69
2023/10/15 02:03:12;;;;;;;9.60;2.38;;;;;;;;;;4993483;28;20105;-69
2023/10/15 02:05:41;;;;;;;4.53;1.95;;;;;;;;;;4993372;28;20034;-69
2023/10/15 02:08:13;;;;;;;15.75;1.80;;;;;;;;;;4993823;28;20553;-69
2023/10/15 02:10:40;;;;;;;14.07;2.25;;;;;;;;;;4993753;28;20085;-69
2023/10/15 02:13:08;;;;;;;12.90;1.83;;;;;;;;;;4993989;28;20068;-69
2023/10/15 02:15:37;;;;;;;7.07;1.80;;;;;;;;;;4993955;28;20030;-69
2023/10/15 02:18:02;;;;;;;12.07;1.83;;;;;;;;;;4993637;28;20605;-69
2023/10/15 02:23:12;;;;;;;11.75;2.05;;;;;;;;;;4993894;28;20088;-69
2023/10/15 02:25:44;;;;;;;10.10;1.67;;;;;;;;;;4994116;28;20109;-69
2023/10/15 02:28:10;;;;;;;8.55;1.77;;;;;;;;;;4993547;28;20022;-69
2023/10/15 02:30:35;;;;;;;7.37;1.77;;;;;;;;;;4993530;28;20502;-69
2023/10/15 02:33:01;;;;;;;10.63;1.83;;;;;;;;;;4993962;28;20708;-69
2023/10/15 02:35:31;;;;;;;9.48;2.00;;;;;;;;;;4993719;28;20097;-69
2023/10/15 02:37:58;;;;;;;4.40;1.45;;;;;;;;;;4993779;28;20481;-68
2023/10/15 02:40:35;;;;;;;15.05;1.88;;;;;;;;;;4993985;28;20105;-69
2023/10/15 02:43:03;;;;;;;10.88;1.73;;;;;;;;;;4993678;28;20494;-69
2023/10/15 02:45:35;;;;;;;12.93;1.92;;;;;;;;;;4993933;28;20053;-69
2023/10/15 02:48:09;;;;;;;12.88;2.25;;;;;;;;;;4993634;28;20030;-69
2023/10/15 02:50:34;;;;;;;8.32;1.52;;;;;;;;;;4993580;28;20034;-69
2023/10/15 02:53:04;;;;;;;7.63;1.63;;;;;;;;;;4993592;28;20069;-69
2023/10/15 02:55:35;;;;;;;9.77;1.98;;;;;;;;;;4993463;28;20018;-69
2023/10/15 02:58:02;;;;;;;4.82;1.80;;;;;;;;;;4993304;28;20011;-69
2023/10/15 03:00:33;;;;;;;9.48;2.20;;;;;;;;;;4993486;28;20053;-69
2023/10/15 03:03:06;;;;;;;13.65;2.20;;;;;;;;;;4993640;28;20466;-69
2023/10/15 03:05:38;;;;;;;9.35;2.65;;;;;;;;;;4993542;28;20023;-70
2023/10/15 03:08:03;;;;;;;10.77;2.10;;;;;;;;;;4993204;28;20026;-69
2023/10/15 03:10:55;;;;;;;11.88;2.47;;;;;;;;;;4993214;28;20108;-69
2023/10/15 03:13:20;;;;;;;7.18;1.55;;;;;;;;;;4993536;28;20053;-69
2023/10/15 03:15:48;;;;;;;8.67;1.70;;;;;;;;;;4993277;28;20031;-69
2023/10/15 03:18:23;;;;;;;6.88;1.90;;;;;;;;;;4976205;28;20683;-69
2023/10/15 03:20:49;;;;;;;3.58;1.52;;;;;;;;;;4977829;28;20042;-69
2023/10/15 03:23:17;;;;;;;8.35;2.20;;;;;;;;;;4977724;28;20490;-69
2023/10/15 03:25:42;;;;;;;7.50;1.88;;;;;;;;;;4977477;28;20027;-69
2023/10/15 03:28:07;;;;;;;8.68;2.17;;;;;;;;;;4996263;28;20169;-69
2023/10/15 03:30:36;;;;;;;8.90;1.90;;;;;;;;;;4997069;28;20434;-69
2023/10/15 03:33:01;;;;;;;4.97;1.70;;;;;;;;;;4997081;28;20023;-70
2023/10/15 03:35:33;;;;;;;8.63;2.15;;;;;;;;;;4996727;28;20098;-69
2023/10/15 03:38:03;;;;;;;11.13;2.20;;;;;;;;;;4996471;28;20031;-69
2023/10/15 03:40:46;;;;;;;7.63;1.65;;;;;;;;;;4996629;28;20117;-69
2023/10/15 03:43:21;;;;;;;7.78;2.00;;;;;;;;;;4996858;28;20057;-69
2023/10/15 03:45:53;;;;;;;7.70;2.95;;;;;;;;;;4996804;28;20487;-69
2023/10/15 03:48:27;;;;;;;10.13;2.65;;;;;;;;;;4996440;28;20030;-69
2023/10/15 03:50:55;;;;;;;8.02;1.80;;;;;;;;;;4996385;28;20026;-69
2023/10/15 03:53:31;;;;;;;7.90;1.55;;;;;;;;;;4996674;28;20027;-69
2023/10/15 03:55:57;;;;;;;12.20;1.80;;;;;;;;;;4996130;28;20493;-69
2023/10/15 03:58:23;;;;;;;9.35;1.98;;;;;;;;;;4996645;28;20015;-69
2023/10/15 04:00:54;;;;;;;8.52;2.25;;;;;;;;;;4996535;28;20022;-69
2023/10/15 04:03:26;;;;;;;11.07;2.40;;;;;;;;;;4996565;28;20053;-69
2023/10/15 04:06:00;;;;;;;17.37;2.63;;;;;;;;;;4996479;28;20498;-69
2023/10/15 04:08:26;;;;;;;10.18;1.83;;;;;;;;;;4981514;28;20026;-69
2023/10/15 04:10:57;;;;;;;7.88;2.20;;;;;;;;;;4995942;28;20042;-69
2023/10/15 04:13:26;;;;;;;9.73;2.55;;;;;;;;;;4996209;28;20077;-66
2023/10/15 04:15:51;;;;;;;7.60;2.35;;;;;;;;;;4995861;28;20068;-66
2023/10/15 04:18:17;;;;;;;10.45;2.17;;;;;;;;;;4996031;28;20030;-66
2023/10/15 04:20:42;;;;;;;8.95;2.10;;;;;;;;;;4996246;28;20026;-66
2023/10/15 04:23:12;;;;;;;9.35;2.28;;;;;;;;;;4995917;28;20046;-66
2023/10/15 04:25:37;;;;;;;7.00;2.00;;;;;;;;;;4995446;28;20034;-66
2023/10/15 04:28:13;;;;;;;7.90;2.03;;;;;;;;;;4995797;28;20022;-66
2023/10/15 04:30:39;;;;;;;7.47;1.48;;;;;;;;;;4995188;28;20493;-66
2023/10/15 04:33:13;;;;;;;5.70;1.80;;;;;;;;;;4995664;28;20022;-66
2023/10/15 04:35:38;;;;;;;7.63;1.92;;;;;;;;;;4995675;28;20454;-66
2023/10/15 04:38:07;;;;;;;9.05;2.72;;;;;;;;;;4995703;28;20033;-66
2023/10/15 04:41:10;;;;;;;9.50;1.80;;;;;;;;;;4995489;28;20037;-66
2023/10/15 04:43:27;;;;;;;9.43;2.13;;;;;;;;;;4993357;28;20034;-65
2023/10/15 04:45:56;;;;;;;8.77;2.03;;;;;;;;;;4995183;28;20018;-66
2023/10/15 04:48:30;;;;;;;3.13;1.50;;;;;;;;;;4995616;28;20475;-66
2023/10/15 04:51:01;;;;;;;11.43;2.40;;;;;;;;;;4995322;28;20022;-66
2023/10/15 04:53:30;;;;;;;4.80;2.30;;;;;;;;;;4995616;28;20033;-66
2023/10/15 04:55:56;;;;;;;6.60;2.15;;;;;;;;;;4995216;28;20447;-66
2023/10/15 04:58:24;;;;;;;6.55;2.35;;;;;;;;;;4995196;28;20042;-66
2023/10/15 05:00:54;;;;;;;6.95;2.17;;;;;;;;;;4995440;28;20537;-66
2023/10/15 05:03:19;;;;;;;5.47;1.67;;;;;;;;;;4995414;28;20510;-66
2023/10/15 05:05:44;;;;;;;5.50;1.98;;;;;;;;;;4994856;28;20085;-66
2023/10/15 05:08:13;;;;;;;5.23;1.90;;;;;;;;;;4995071;28;20030;-66
2023/10/15 05:10:44;;;;;;;8.85;2.25;;;;;;;;;;4994778;28;20046;-66
2023/10/15 05:13:13;;;;;;;7.30;2.00;;;;;;;;;;4994971;28;20050;-66
2023/10/15 05:15:42;;;;;;;11.07;2.30;;;;;;;;;;4994594;28;20023;-66
2023/10/15 05:18:07;;;;;;;5.30;1.92;;;;;;;;;;4994859;28;20202;-66
2023/10/15 05:20:33;;;;;;;7.20;1.93;;;;;;;;;;4994848;28;20122;-66
2023/10/15 05:22:58;;;;;;;5.07;1.60;;;;;;;;;;4993217;28;20668;-69
2023/10/15 05:25:23;;;;;;;5.67;1.80;;;;;;;;;;4993929;28;20022;-69
2023/10/15 05:27:51;;;;;;;6.00;2.10;;;;;;;;;;4993387;28;20298;-69
2023/10/15 05:30:17;;;;;;;10.38;1.98;;;;;;;;;;4993511;28;20364;-69
2023/10/15 05:32:48;;;;;;;7.13;1.77;;;;;;;;;;4993504;28;20098;-69
2023/10/15 05:35:13;;;;;;;6.20;1.58;;;;;;;;;;4992990;28;20105;-69
2023/10/15 05:37:41;;;;;;;7.07;1.80;;;;;;;;;;4993183;28;20093;-69
2023/10/15 05:40:07;;;;;;;9.30;2.00;;;;;;;;;;4993361;28;20255;-70
2023/10/15 05:42:33;;;;;;;9.25;2.30;;;;;;;;;;4993572;28;20076;-70
2023/10/15 05:44:58;;;;;;;3.90;1.80;;;;;;;;;;4993321;28;20146;-69
2023/10/15 05:47:23;;;;;;;4.45;1.73;;;;;;;;;;4992832;28;20037;-69
2023/10/15 05:49:49;;;;;;;4.45;1.77;;;;;;;;;;4992955;28;20049;-69
2023/10/15 05:52:15;;;;;;;4.32;1.60;;;;;;;;;;4993277;28;20022;-70
2023/10/15 05:54:40;;;;;;;5.70;2.22;;;;;;;;;;4993420;28;20029;-69
2023/10/15 05:57:08;;;;;;;6.60;1.90;;;;;;;;;;4992865;28;20025;-69
2023/10/15 05:59:35;;;;;;;6.28;1.77;;;;;;;;;;4993050;28;20158;-69
2023/10/15 06:02:00;;;;;;;7.30;2.22;;;;;;;;;;4992616;28;20035;-69
2023/10/15 06:04:27;;;;;;;11.13;2.13;;;;;;;;;;4993287;28;20029;-69
2023/10/15 06:06:52;;;;;;;2.80;1.60;;;;;;;;;;4992589;28;20018;-69
2023/10/15 06:09:17;;;;;;;6.33;1.83;;;;;;;;;;4992775;28;20280;-69
2023/10/15 06:11:42;;;;;;;5.20;1.77;;;;;;;;;;4992842;28;20521;-69
2023/10/15 06:14:08;;;;;;;4.70;1.57;;;;;;;;;;4992470;28;20026;-69
2023/10/15 06:16:34;;;;;;;6.70;1.98;;;;;;;;;;4993175;28;20267;-69
2023/10/15 06:18:59;;;;;;;7.18;1.63;;;;;;;;;;4992853;28;20026;-69
2023/10/15 06:21:24;;;;;;;6.90;1.83;;;;;;;;;;4994119;28;20022;-69
2023/10/15 06:23:50;;;;;;;6.53;1.83;;;;;;;;;;4993960;28;20022;-69
2023/10/15 06:26:15;;;;;;;6.50;2.23;;;;;;;;;;4993467;28;20023;-69
2023/10/15 06:28:40;;;;;;;6.47;2.28;;;;;;;;;;4993850;28;20077;-69
2023/10/15 06:31:06;;;;;;;8.83;2.73;;;;;;;;;;4993848;28;20030;-70
2023/10/15 06:33:31;;;;;;;4.22;1.80;;;;;;;;;;4994173;28;20030;-66
2023/10/15 06:35:57;;;;;;;8.37;2.00;;;;;;;;;;4993766;28;20096;-66
2023/10/15 06:38:22;;;;;;;7.85;2.22;;;;;;;;;;4994018;28;20252;-66
2023/10/15 06:40:47;;;;;;;8.50;1.80;;;;;;;;;;4993768;28;20030;-66
2023/10/15 06:43:15;;;;;;;11.57;2.53;;;;;;;;;;4993841;28;20620;-66
2023/10/15 06:45:40;;;;;;;22.30;12.10;;;;;;;;;;4992445;28;20034;-66
2023/10/15 06:48:06;;;;;;;24.65;11.30;;;;;;;;;;4993704;28;20034;-66
2023/10/15 06:50:33;;;;;;;19.58;8.40;;;;;;;;;;4993584;28;20026;-66
2023/10/15 06:53:01;;;;;;;10.00;4.68;;;;;;;;;;4994985;28;20474;-66
2023/10/15 06:55:26;;;;;;;18.02;6.82;;;;;;;;;;4996543;28;20077;-66
2023/10/15 06:57:53;;;;;;;17.83;6.00;;;;;;;;;;4997092;28;20018;-66
2023/10/15 07:00:21;;;;;;;12.73;4.82;;;;;;;;;;4997201;28;20029;-65
2023/10/15 07:02:48;;;;;;;15.48;5.15;;;;;;;;;;4996800;28;20030;-66
2023/10/15 07:05:16;;;;;;;8.63;3.45;;;;;;;;;;4997277;28;20022;-66
2023/10/15 07:07:41;;;;;;;13.45;3.75;;;;;;;;;;4996788;28;20093;-66
2023/10/15 07:10:06;;;;;;;11.48;3.15;;;;;;;;;;4996572;28;20531;-66
2023/10/15 07:12:32;;;;;;;6.78;2.92;;;;;;;;;;4996836;28;20025;-66
2023/10/15 07:14:57;;;;;;;10.77;3.35;;;;;;;;;;4996530;28;20039;-67
2023/10/15 07:17:22;;;;;;;8.23;3.03;;;;;;;;;;4996760;28;20050;-67
2023/10/15 07:19:48;;;;;;;14.03;2.70;;;;;;;;;;4996739;28;20022;-67
2023/10/15 07:22:13;;;;;;;9.53;3.50;;;;;;;;;;4996268;28;20343;-67
2023/10/15 07:24:38;;;;;;;10.27;3.70;;;;;;;;;;4996353;28;20371;-67
2023/10/15 07:27:04;;;;;;;7.23;3.10;;;;;;;;;;4996601;28;20018;-66
2023/10/15 07:29:29;;;;;;;13.43;4.03;;;;;;;;;;4996268;28;20041;-67
2023/10/15 07:31:55;;;;;;;9.45;3.63;;;;;;;;;;4996744;28;20022;-67
2023/10/15 07:34:22;;;;;;;19.58;4.22;;;;;;;;;;4996568;28;20023;-67
2023/10/15 07:36:50;;;;;;;15.95;4.63;;;;;;;;;;4996334;28;20542;-67
2023/10/15 07:39:17;;;;;;;17.08;4.30;;;;;;;;;;4996684;28;20597;-67
2023/10/15 07:41:42;;;;;;;13.40;4.38;;;;;;;;;;4996609;28;20026;-67
2023/10/15 07:44:08;;;;;;;14.52;4.93;;;;;;;;;;4996157;28;20494;-67
2023/10/15 07:46:34;;;;;;;16.98;4.38;;;;;;;;;;4996470;28;20080;-67
2023/10/15 07:48:59;;;;;;;10.32;4.10;;;;;;;;;;4996319;28;20069;-67
2023/10/15 07:51:26;;;;;;;15.93;6.10;;;;;;;;;;4996168;28;20479;-67
2023/10/15 07:53:52;;;;;;;14.70;4.50;;;;;;;;;;4996331;28;20041;-67
2023/10/15 07:56:17;;;;;;;15.05;4.78;;;;;;;;;;4996076;28;20022;-67
2023/10/15 07:58:42;;;;;;;17.17;5.25;;;;;;;;;;4996107;28;20493;-67
2023/10/15 08:01:08;;;;;;;16.15;4.72;;;;;;;;;;4996232;28;20037;-67
2023/10/15 08:03:33;;;;;;;17.00;4.93;;;;;;;;;;4994997;28;20089;-67
2023/10/15 08:06:02;;;;;;;18.23;4.40;;;;;;;;;;4995339;28;20081;-67
2023/10/15 08:08:27;;;;;;;14.07;4.03;;;;;;;;;;4995170;28;20485;-67
2023/10/15 08:10:52;;;;;;;12.30;3.88;;;;;;;;;;4994320;28;20134;-67
2023/10/15 08:13:18;;;;;;;15.23;4.32;;;;;;;;;;4996380;28;20057;-67
2023/10/15 08:15:43;;;;;;;10.70;3.55;;;;;;;;;;4996342;28;20044;-66
2023/10/15 08:18:09;;;;;;;17.23;4.03;;;;;;;;;;4996035;28;20049;-67
2023/10/15 08:20:34;;;;;;;13.30;3.77;;;;;;;;;;4996009;28;20029;-67
2023/10/15 08:23:00;;;;;;;12.43;3.40;;;;;;;;;;4996163;28;20294;-67
2023/10/15 08:25:25;;;;;;;12.55;3.33;;;;;;;;;;4995857;28;20050;-67
2023/10/15 08:27:51;;;;;;;13.98;3.38;;;;;;;;;;4996087;28;20060;-67
2023/10/15 08:30:17;;;;;;;9.98;2.90;;;;;;;;;;4995724;28;20463;-67
2023/10/15 08:32:46;;;;;;;16.05;3.15;;;;;;;;;;4995720;28;20026;-67
2023/10/15 08:35:13;;;;;;;11.18;3.22;;;;;;;;;;4995864;28;20020;-67
2023/10/15 08:37:39;;;;;;;9.00;2.50;;;;;;;;;;4995923;28;20068;-67
2023/10/15 08:40:04;;;;;;;10.98;3.17;;;;;;;;;;4995827;28;20108;-67
2023/10/15 08:42:32;;;;;;;10.90;2.83;;;;;;;;;;4995838;28;20037;-67
2023/10/15 08:44:59;;;;;;;9.93;3.10;;;;;;;;;;4995733;28;20463;-67
2023/10/15 08:47:25;;;;;;;13.20;2.40;;;;;;;;;;4995520;28;20462;-67
2023/10/15 08:49:51;;;;;;;10.20;2.22;;;;;;;;;;4995305;28;20109;-67
2023/10/15 08:52:17;;;;;;;11.55;2.63;;;;;;;;;;4995389;28;20076;-66
2023/10/15 08:54:43;;;;;;;7.95;2.72;;;;;;;;;;4995406;28;20097;-66
2023/10/15 08:57:08;;;;;;;9.43;2.67;;;;;;;;;;4995266;28;20459;-66
2023/10/15 08:59:35;;;;;;;9.15;2.30;;;;;;;;;;4993969;28;20050;-66
2023/10/15 09:02:05;;;;;;;9.65;2.47;;;;;;;;;;4995424;28;20032;-66
2023/10/15 09:04:30;;;;;;;9.23;1.90;;;;;;;;;;4995393;28;20061;-66
2023/10/15 09:07:01;;;;;;;7.18;2.40;;;;;;;;;;4995335;28;20018;-66
2023/10/15 09:09:26;;;;;;;7.47;2.17;;;;;;;;;;4994827;28;20113;-66
2023/10/15 09:11:54;;;;;;;8.80;2.28;;;;;;;;;;4994901;28;20137;-66
2023/10/15 09:14:35;;;;;;;16.67;3.45;;;;;;;;;;4995166;28;20077;-66
2023/10/15 09:17:00;;;;;;;8.35;2.30;;;;;;;;;;4994581;28;20018;-66
2023/10/15 09:19:26;;;;;;;8.23;2.33;;;;;;;;;;4994878;28;20073;-66
2023/10/15 09:21:52;;;;;;;7.57;2.08;;;;;;;;;;4994870;28;20026;-66
2023/10/15 09:24:20;;;;;;;6.07;2.35;;;;;;;;;;4994756;28;20113;-66
2023/10/15 09:26:45;;;;;;;8.52;2.45;;;;;;;;;;4994970;28;20502;-66
2023/10/15 09:29:16;;;;;;;12.53;2.00;;;;;;;;;;4994623;28;20117;-66
2023/10/15 09:31:42;;;;;;;11.27;2.60;;;;;;;;;;4994712;28;20088;-66
2023/10/15 09:34:11;;;;;;;10.87;2.43;;;;;;;;;;4994613;28;20018;-65
2023/10/15 09:36:37;;;;;;;8.18;2.72;;;;;;;;;;4994864;28;20037;-65
2023/10/15 09:39:04;;;;;;;5.15;1.90;;;;;;;;;;4994474;28;20026;-66
2023/10/15 09:41:30;;;;;;;11.13;1.83;;;;;;;;;;4994750;28;20149;-65
2023/10/15 09:43:57;;;;;;;7.50;2.10;;;;;;;;;;4994479;28;20093;-66
2023/10/15 09:46:23;;;;;;;9.90;1.77;;;;;;;;;;4994492;28;20022;-66
2023/10/15 09:48:49;;;;;;;8.50;1.55;;;;;;;;;;4994410;28;20113;-65
2023/10/15 09:51:14;;;;;;;7.95;1.75;;;;;;;;;;4994335;28;20026;-66
2023/10/15 09:53:41;;;;;;;4.65;1.45;;;;;;;;;;4994270;28;20022;-66
2023/10/15 09:56:08;;;;;;;8.18;1.75;;;;;;;;;;4994160;28;20026;-66
2023/10/15 09:58:34;;;;;;;9.75;2.10;;;;;;;;;;4994250;28;20022;-66
2023/10/15 10:00:59;;;;;;;8.50;1.63;;;;;;;;;;4994424;28;20032;-66
2023/10/15 10:03:47;;;;;;;6.37;1.30;;;;;;;;;;4994216;28;20485;-68
2023/10/15 10:06:24;;;;;;;6.05;1.20;;;;;;;;;;4994111;28;20026;-69
2023/10/15 10:09:01;;;;;;;3.05;1.20;;;;;;;;;;4994269;28;20061;-68
2023/10/15 10:11:39;;;;;;;4.28;1.33;;;;;;;;;;4993961;28;20057;-69
2023/10/15 10:14:15;;;;;;;4.15;1.10;;;;;;;;;;4994054;28;20023;-69
2023/10/15 10:16:42;;;;;;;5.07;1.20;;;;;;;;;;4994007;28;20022;-68
2023/10/15 10:19:08;;;;;;;10.98;1.35;;;;;;;;;;4993868;28;20023;-68
2023/10/15 10:21:34;;;;;;;3.53;1.23;;;;;;;;;;4994175;28;20030;-69
2023/10/15 10:24:02;;;;;;;3.60;1.10;;;;;;;;;;4994146;28;20023;-69
2023/10/15 10:26:30;;;;;;;7.97;1.15;;;;;;;;;;4993626;28;20045;-69
2023/10/15 10:28:57;;;;;;;9.20;1.40;;;;;;;;;;4993380;28;20503;-69
2023/10/15 10:31:22;;;;;;;5.32;1.35;;;;;;;;;;4994128;28;20552;-69
2023/10/15 10:33:49;;;;;;;7.15;1.33;;;;;;;;;;4992658;28;20023;-68
2023/10/15 10:36:15;;;;;;;5.53;1.35;;;;;;;;;;4993601;28;20029;-68
2023/10/15 10:38:41;;;;;;;4.55;1.20;;;;;;;;;;4989610;28;20082;-68
2023/10/15 10:41:13;;;;;;;3.83;0.90;;;;;;;;;;4988117;28;20054;-68
2023/10/15 10:43:40;;;;;;;5.60;1.13;;;;;;;;;;4993700;28;20486;-68
2023/10/15 10:46:06;;;;;;;3.13;0.90;;;;;;;;;;4993163;28;20058;-68
2023/10/15 10:48:39;;;;;;;3.45;1.00;;;;;;;;;;4993061;28;20081;-68
2023/10/15 10:51:15;;;;;;;7.30;1.15;;;;;;;;;;4984018;28;20131;-68
2023/10/15 10:53:56;;;;;;;5.25;1.02;;;;;;;;;;4987932;28;20402;-68
2023/10/15 10:56:22;;;;;;;2.40;0.93;;;;;;;;;;4985625;28;20084;-68
2023/10/15 10:58:48;;;;;;;4.78;1.10;;;;;;;;;;4992764;28;20029;-68
2023/10/15 11:01:13;;;;;;;5.85;1.10;;;;;;;;;;4989274;28;20114;-68
2023/10/15 11:03:40;;;;;;;3.40;1.17;;;;;;;;;;4989826;28;20632;-68
2023/10/15 11:06:07;;;;;;;2.22;0.95;;;;;;;;;;4985481;28;20046;-68
2023/10/15 11:08:32;;;;;;;5.80;1.52;;;;;;;;;;4991199;28;20077;-68
2023/10/15 11:10:59;;;;;;;3.43;0.87;;;;;;;;;;4986005;28;20515;-68
2023/10/15 11:13:24;;;;;;;3.50;1.08;;;;;;;;;;4992702;28;20042;-68
2023/10/15 11:15:50;;;;;;;5.45;1.10;;;;;;;;;;4992619;28;20019;-69
2023/10/15 11:18:25;;;;;;;6.32;1.00;;;;;;;;;;4992627;28;20034;-68
2023/10/15 11:20:52;;;;;;;4.68;1.13;;;;;;;;;;4992180;28;20053;-68
2023/10/15 11:23:17;;;;;;;3.22;0.90;;;;;;;;;;4991892;28;20566;-68
2023/10/15 11:25:42;;;;;;;4.45;1.17;;;;;;;;;;4992432;28;20109;-68
2023/10/15 11:28:10;;;;;;;2.60;0.85;;;;;;;;;;4992587;28;20106;-68
2023/10/15 11:30:36;;;;;;;4.63;0.98;;;;;;;;;;4992094;28;20037;-68
2023/10/15 11:33:01;;;;;;;2.20;0.95;;;;;;;;;;4992545;28;20022;-69
2023/10/15 11:35:32;;;;;;;1.60;0.73;;;;;;;;;;4992181;28;20065;-68
2023/10/15 11:37:57;;;;;;;3.83;1.27;;;;;;;;;;4992795;28;20027;-69
2023/10/15 11:40:24;;;;;;;3.93;0.87;;;;;;;;;;4996359;28;20363;-69
2023/10/15 11:42:54;;;;;;;3.05;0.90;;;;;;;;;;4996276;28;20254;-69
2023/10/15 11:45:25;;;;;;;2.85;0.70;;;;;;;;;;4996224;28;20026;-69
2023/10/15 11:47:52;;;;;;;2.58;0.65;;;;;;;;;;4996253;28;20022;-69
2023/10/15 11:50:19;;;;;;;2.58;0.90;;;;;;;;;;4995293;28;20112;-69
2023/10/15 11:52:44;;;;;;;2.03;1.02;;;;;;;;;;4996421;28;20101;-69
2023/10/15 11:55:16;;;;;;;1.48;0.90;;;;;;;;;;4995908;28;20061;-69
2023/10/15 11:57:42;;;;;;;2.95;0.82;;;;;;;;;;4990092;28;20058;-69
2023/10/15 12:00:09;;;;;;;1.23;0.70;;;;;;;;;;4994691;28;20030;-69
2023/10/15 12:02:34;;;;;;;1.63;0.85;;;;;;;;;;4996173;28;20030;-69
2023/10/15 12:05:01;;;;;;;2.78;0.95;;;;;;;;;;4977571;28;20529;-68
2023/10/15 12:07:28;;;;;;;2.58;1.00;;;;;;;;;;4976306;28;20030;-68
2023/10/15 12:09:53;;;;;;;6.53;0.95;;;;;;;;;;4986383;28;20041;-68
2023/10/15 12:12:18;;;;;;;5.03;1.10;;;;;;;;;;4995225;28;20113;-68
2023/10/15 12:14:43;;;;;;;2.88;0.80;;;;;;;;;;4992434;28;20029;-68
2023/10/15 12:17:12;;;;;;;3.13;1.20;;;;;;;;;;4995080;28;20553;-68
2023/10/15 12:19:37;;;;;;;3.58;0.73;;;;;;;;;;4989022;28;20137;-68
2023/10/15 12:22:03;;;;;;;3.63;1.07;;;;;;;;;;4994692;28;20549;-68
2023/10/15 12:24:28;;;;;;;8.40;0.90;;;;;;;;;;4995558;28;20049;-69
2023/10/15 12:26:53;;;;;;;3.10;0.80;;;;;;;;;;4995700;28;20498;-68
2023/10/15 12:29:28;;;;;;;5.50;1.00;;;;;;;;;;4994413;28;20478;-68
2023/10/15 12:31:53;;;;;;;3.05;1.00;;;;;;;;;;4980952;28;20352;-68
2023/10/15 12:34:20;;;;;;;4.32;1.05;;;;;;;;;;4995601;28;20033;-68
2023/10/15 12:36:45;;;;;;;3.42;0.95;;;;;;;;;;4995975;28;20507;-68
2023/10/15 12:39:10;;;;;;;3.87;0.87;;;;;;;;;;4994389;28;20113;-68
2023/10/15 12:41:38;;;;;;;4.40;0.75;;;;;;;;;;4995338;28;20018;-68
2023/10/15 12:44:09;;;;;;;5.03;0.88;;;;;;;;;;4992330;28;20072;-68
2023/10/15 12:46:35;;;;;;;4.15;0.80;;;;;;;;;;4994979;28;20026;-69
2023/10/15 12:49:03;;;;;;;2.20;0.60;;;;;;;;;;4995414;28;20378;-68
2023/10/15 12:51:28;;;;;;;2.30;0.85;;;;;;;;;;4995049;28;20077;-68
2023/10/15 12:53:53;;;;;;;2.92;0.80;;;;;;;;;;4995293;28;20442;-69
2023/10/15 12:56:18;;;;;;;2.17;0.70;;;;;;;;;;4995389;28;20027;-69
2023/10/15 12:58:44;;;;;;;1.73;0.60;;;;;;;;;;4995375;28;20026;-69
2023/10/15 13:01:09;;;;;;;2.17;0.90;;;;;;;;;;4995455;28;20049;-69
2023/10/15 13:03:34;;;;;;;6.68;0.73;;;;;;;;;;4995233;28;20027;-68
2023/10/15 13:05:59;;;;;;;3.87;0.90;;;;;;;;;;4995445;28;20466;-69
2023/10/15 13:08:25;;;;;;;3.95;0.75;;;;;;;;;;4995141;28;20118;-69
2023/10/15 13:10:51;;;;;;;4.30;0.30;;;;;;;;;;4994908;28;20046;-68
2023/10/15 13:13:16;;;;;;;3.95;0.82;;;;;;;;;;4995079;28;20723;-69
2023/10/15 13:15:41;;;;;;;2.33;0.93;;;;;;;;;;4994923;28;20025;-68
2023/10/15 13:18:07;;;;;;;1.53;0.60;;;;;;;;;;4995215;28;20027;-68
2023/10/15 13:20:32;;;;;;;3.67;0.50;;;;;;;;;;4994837;28;20327;-69
2023/10/15 13:22:57;;;;;;;2.00;0.50;;;;;;;;;;4995137;28;20023;-69
2023/10/15 13:25:22;;;;;;;2.63;0.60;;;;;;;;;;4995068;28;20085;-68
2023/10/15 13:27:48;;;;;;;3.22;0.52;;;;;;;;;;4995017;28;20255;-69
2023/10/15 13:30:15;;;;;;;3.67;0.57;;;;;;;;;;4994598;28;20018;-69
2023/10/15 13:32:40;;;;;;;0.65;0.45;;;;;;;;;;4994663;28;20109;-69
2023/10/15 13:35:07;;;;;;;1.27;0.43;;;;;;;;;;4994742;28;20101;-65
2023/10/15 13:37:32;;;;;;;7.22;0.80;;;;;;;;;;4994845;28;20030;-65
2023/10/15 13:39:57;;;;;;;3.60;0.90;;;;;;;;;;4994555;28;20022;-65
2023/10/15 13:42:22;;;;;;;3.27;0.80;;;;;;;;;;4994570;28;20590;-65
2023/10/15 13:44:49;;;;;;;2.67;0.60;;;;;;;;;;4994711;28;20029;-65
2023/10/15 13:47:14;;;;;;;1.58;0.60;;;;;;;;;;4994367;28;20034;-65
2023/10/15 13:49:39;;;;;;;3.13;0.60;;;;;;;;;;4994351;28;20027;-65
2023/10/15 13:52:04;;;;;;;1.63;0.60;;;;;;;;;;4994376;28;20263;-65
2023/10/15 13:54:30;;;;;;;0.63;0.28;;;;;;;;;;4994245;28;20014;-65
2023/10/15 13:56:57;;;;;;;2.42;0.70;;;;;;;;;;4994305;28;20022;-65
2023/10/15 13:59:22;;;;;;;3.00;0.98;;;;;;;;;;4994498;28;20089;-65
2023/10/15 14:01:48;;;;;;;1.67;0.70;;;;;;;;;;4993518;28;20030;-65
2023/10/15 14:04:13;;;;;;;1.48;0.57;;;;;;;;;;4994309;28;20260;-65
2023/10/15 14:06:39;;;;;;;2.50;0.70;;;;;;;;;;4994397;28;20033;-65
2023/10/15 14:09:27;;;;;;;0.80;0.40;;;;;;;;;;4994050;28;20426;-65
2023/10/15 14:11:49;;;;;;;2.00;0.57;;;;;;;;;;4993639;28;20764;-65
2023/10/15 14:14:15;;;;;;;2.80;0.43;;;;;;;;;;4994026;28;20098;-65
2023/10/15 14:16:40;;;;;;;3.83;0.85;;;;;;;;;;4993939;28;20255;-65
2023/10/15 14:19:05;;;;;;;2.20;0.70;;;;;;;;;;4994258;28;20014;-65
2023/10/15 14:21:31;;;;;;;1.60;0.52;;;;;;;;;;4993913;28;20022;-65
2023/10/15 14:23:56;;;;;;;1.70;0.70;;;;;;;;;;4993911;28;20026;-65
2023/10/15 14:26:22;;;;;;;1.43;0.57;;;;;;;;;;4993951;28;20027;-66
2023/10/15 14:28:48;;;;;;;3.90;0.80;;;;;;;;;;4994103;28;20256;-65
2023/10/15 14:31:13;;;;;;;3.65;0.57;;;;;;;;;;4994060;28;20153;-65
2023/10/15 14:33:38;;;;;;;1.08;0.60;;;;;;;;;;4994110;28;20073;-65
2023/10/15 14:36:05;;;;;;;3.10;0.67;;;;;;;;;;4993844;28;20042;-65
2023/10/15 14:38:31;;;;;;;2.13;0.50;;;;;;;;;;4994054;28;20476;-65
2023/10/15 14:40:56;;;;;;;2.08;0.82;;;;;;;;;;4994041;28;20150;-65
2023/10/15 14:43:21;;;;;;;2.43;0.63;;;;;;;;;;4993816;28;20386;-65
2023/10/15 14:45:47;;;;;;;1.98;0.80;;;;;;;;;;4994018;28;20023;-65
2023/10/15 14:48:13;;;;;;;2.50;0.80;;;;;;;;;;4993718;28;20029;-65
2023/10/15 14:50:38;;;;;;;2.92;0.70;;;;;;;;;;4993887;28;20282;-65